sensor_id;sensor_type;location;lat;lon;timestamp;pressure;altitude;pressure_sealevel;temperature;humidity
5350;BME280;2697;42.144;24.794;2022-10-16T00:00:34;155320.25;;;10.68;98.04
5350;BME280;2697;42.144;24.794;2022-10-16T00:03:00;155341.34;;;10.76;97.80
5350;BME280;2697;42.144;24.794;2022-10-16T00:05:25;155372.94;;;10.88;97.27
5350;BME280;2697;42.144;24.794;2022-10-16T00:07:51;155343.97;;;10.77;96.80
5350;BME280;2697;42.144;24.794;2022-10-16T00:10:16;155365.03;;;10.85;97.00
5350;BME280;2697;42.144;24.794;2022-10-16T00:12:42;155415.09;;;11.04;96.43
5350;BME280;2697;42.144;24.794;2022-10-16T00:15:07;155437.47;;;11.13;95.35
5350;BME280;2697;42.144;24.794;2022-10-16T00:17:33;155463.81;;;11.23;94.95
5350;BME280;2697;42.144;24.794;2022-10-16T00:19:58;155470.41;;;11.26;94.91
5350;BME280;2697;42.144;24.794;2022-10-16T00:22:24;155449.38;;;11.18;94.38
5350;BME280;2697;42.144;24.794;2022-10-16T00:24:50;155428.28;;;11.09;94.67
5350;BME280;2697;42.144;24.794;2022-10-16T00:27:15;155380.88;;;10.91;95.61
5350;BME280;2697;42.144;24.794;2022-10-16T00:29:41;155399.31;;;10.98;95.74
5350;BME280;2697;42.144;24.794;2022-10-16T00:32:08;155397.94;;;10.98;95.65
5350;BME280;2697;42.144;24.794;2022-10-16T00:34:34;155387.44;;;10.94;95.86
5350;BME280;2697;42.144;24.794;2022-10-16T00:36:59;155383.50;;;10.92;96.31
5350;BME280;2697;42.144;24.794;2022-10-16T00:39:25;155387.44;;;10.94;96.09
5350;BME280;2697;42.144;24.794;2022-10-16T00:41:50;155372.94;;;10.88;96.37
5350;BME280;2697;42.144;24.794;2022-10-16T00:44:42;155366.34;;;10.85;96.44
5350;BME280;2697;42.144;24.794;2022-10-16T00:47:34;155347.91;;;10.78;96.32
5350;BME280;2697;42.144;24.794;2022-10-16T00:50:08;155316.31;;;10.66;97.09
5350;BME280;2697;42.144;24.794;2022-10-16T00:52:33;155322.88;;;10.69;97.30
5350;BME280;2697;42.144;24.794;2022-10-16T00:55:00;155312.38;;;10.65;96.96
5350;BME280;2697;42.144;24.794;2022-10-16T00:57:26;155315.00;;;10.66;97.26
5350;BME280;2697;42.144;24.794;2022-10-16T00:59:53;155299.19;;;10.60;97.64
5350;BME280;2697;42.144;24.794;2022-10-16T01:02:18;155299.19;;;10.60;97.91
5350;BME280;2697;42.144;24.794;2022-10-16T01:04:51;155288.66;;;10.55;98.02
5350;BME280;2697;42.144;24.794;2022-10-16T01:12:36;155261.03;;;10.45;99.16
5350;BME280;2697;42.144;24.794;2022-10-16T01:15:42;155214.94;;;10.27;99.89
5350;BME280;2697;42.144;24.794;2022-10-16T01:21:02;155200.38;;;10.21;100.00
5350;BME280;2697;42.144;24.794;2022-10-16T01:31:20;155232.06;;;10.34;100.00
5350;BME280;2697;42.144;24.794;2022-10-16T01:33:51;155166.19;;;10.08;100.00
5350;BME280;2697;42.144;24.794;2022-10-16T01:36:26;155187.25;;;10.16;100.00
5350;BME280;2697;42.144;24.794;2022-10-16T01:38:56;155201.75;;;10.22;100.00
5350;BME280;2697;42.144;24.794;2022-10-16T01:41:34;155212.31;;;10.26;100.00
5350;BME280;2697;42.144;24.794;2022-10-16T01:44:09;155228.06;;;10.32;100.00
5350;BME280;2697;42.144;24.794;2022-10-16T01:46:38;155226.75;;;10.32;100.00
5350;BME280;2697;42.144;24.794;2022-10-16T01:49:06;155172.75;;;10.11;100.00
5350;BME280;2697;42.144;24.794;2022-10-16T01:51:34;155187.25;;;10.16;100.00
5350;BME280;2697;42.144;24.794;2022-10-16T01:54:01;155166.19;;;10.08;100.00
5350;BME280;2697;42.144;24.794;2022-10-16T01:56:29;155172.75;;;10.11;100.00
5350;BME280;2697;42.144;24.794;2022-10-16T01:59:01;155162.25;;;10.07;100.00
5350;BME280;2697;42.144;24.794;2022-10-16T02:01:29;155222.81;;;10.30;100.00
5350;BME280;2697;42.144;24.794;2022-10-16T02:03:58;155216.25;;;10.27;100.00
5350;BME280;2697;42.144;24.794;2022-10-16T02:06:25;155188.56;;;10.17;100.00
5350;BME280;2697;42.144;24.794;2022-10-16T02:08:50;155180.63;;;10.14;100.00
5350;BME280;2697;42.144;24.794;2022-10-16T02:11:16;155174.06;;;10.11;100.00
5350;BME280;2697;42.144;24.794;2022-10-16T02:13:45;155185.94;;;10.16;100.00
5350;BME280;2697;42.144;24.794;2022-10-16T02:16:13;155183.31;;;10.15;100.00
5350;BME280;2697;42.144;24.794;2022-10-16T02:18:39;155233.38;;;10.34;100.00
5350;BME280;2697;42.144;24.794;2022-10-16T02:21:54;155213.63;;;10.26;100.00
5350;BME280;2697;42.144;24.794;2022-10-16T02:24:43;155221.50;;;10.30;100.00
5350;BME280;2697;42.144;24.794;2022-10-16T02:27:23;155225.44;;;10.31;100.00
5350;BME280;2697;42.144;24.794;2022-10-16T02:29:54;155199.06;;;10.21;100.00
5350;BME280;2697;42.144;24.794;2022-10-16T02:32:25;155203.06;;;10.22;100.00
5350;BME280;2697;42.144;24.794;2022-10-16T02:34:53;155220.19;;;10.29;100.00
5350;BME280;2697;42.144;24.794;2022-10-16T02:37:19;155228.06;;;10.32;100.00
5350;BME280;2697;42.144;24.794;2022-10-16T02:39:45;155237.31;;;10.36;100.00
5350;BME280;2697;42.144;24.794;2022-10-16T02:42:14;155230.75;;;10.33;100.00
5350;BME280;2697;42.144;24.794;2022-10-16T02:44:40;155150.38;;;10.02;100.00
5350;BME280;2697;42.144;24.794;2022-10-16T02:47:05;155080.63;;;9.75;100.00
5350;BME280;2697;42.144;24.794;2022-10-16T02:49:31;155139.88;;;9.98;100.00
5350;BME280;2697;42.144;24.794;2022-10-16T02:51:56;155141.19;;;9.98;100.00
5350;BME280;2697;42.144;24.794;2022-10-16T02:54:22;155120.13;;;9.90;100.00
5350;BME280;2697;42.144;24.794;2022-10-16T02:56:47;155099.06;;;9.82;100.00
5350;BME280;2697;42.144;24.794;2022-10-16T02:59:12;155117.50;;;9.89;100.00
5350;BME280;2697;42.144;24.794;2022-10-16T03:01:38;155096.44;;;9.81;100.00
5350;BME280;2697;42.144;24.794;2022-10-16T03:04:03;155081.94;;;9.76;100.00
5350;BME280;2697;42.144;24.794;2022-10-16T03:06:28;155100.38;;;9.83;100.00
5350;BME280;2697;42.144;24.794;2022-10-16T03:08:54;155122.75;;;9.91;100.00
5350;BME280;2697;42.144;24.794;2022-10-16T03:11:19;155104.31;;;9.84;100.00
5350;BME280;2697;42.144;24.794;2022-10-16T03:13:45;155117.50;;;9.89;100.00
5350;BME280;2697;42.144;24.794;2022-10-16T03:16:10;155097.75;;;9.82;100.00
5350;BME280;2697;42.144;24.794;2022-10-16T03:18:36;155097.75;;;9.82;100.00
5350;BME280;2697;42.144;24.794;2022-10-16T03:21:02;155088.56;;;9.78;100.00
5350;BME280;2697;42.144;24.794;2022-10-16T03:23:27;155101.69;;;9.83;100.00
5350;BME280;2697;42.144;24.794;2022-10-16T03:25:53;155167.50;;;10.09;100.00
5350;BME280;2697;42.144;24.794;2022-10-16T03:28:19;155117.50;;;9.89;100.00
5350;BME280;2697;42.144;24.794;2022-10-16T03:30:44;155118.81;;;9.90;100.00
5350;BME280;2697;42.144;24.794;2022-10-16T03:33:09;155114.88;;;9.88;100.00
5350;BME280;2697;42.144;24.794;2022-10-16T03:35:35;155124.06;;;9.92;100.00
5350;BME280;2697;42.144;24.794;2022-10-16T03:38:00;155074.06;;;9.73;100.00
5350;BME280;2697;42.144;24.794;2022-10-16T03:40:26;155075.38;;;9.73;100.00
5350;BME280;2697;42.144;24.794;2022-10-16T03:42:51;155091.19;;;9.79;100.00
5350;BME280;2697;42.144;24.794;2022-10-16T03:45:17;155067.50;;;9.70;100.00
5350;BME280;2697;42.144;24.794;2022-10-16T03:47:42;155051.69;;;9.64;100.00
5350;BME280;2697;42.144;24.794;2022-10-16T03:50:08;155047.75;;;9.62;100.00
5350;BME280;2697;42.144;24.794;2022-10-16T03:52:33;155049.06;;;9.63;100.00
5350;BME280;2697;42.144;24.794;2022-10-16T03:54:59;155059.56;;;9.67;100.00
5350;BME280;2697;42.144;24.794;2022-10-16T03:57:24;155083.25;;;9.76;100.00
5350;BME280;2697;42.144;24.794;2022-10-16T03:59:50;155106.94;;;9.85;100.00
5350;BME280;2697;42.144;24.794;2022-10-16T04:02:16;155120.13;;;9.90;100.00
5350;BME280;2697;42.144;24.794;2022-10-16T04:04:41;155089.88;;;9.79;100.00
5350;BME280;2697;42.144;24.794;2022-10-16T04:07:07;155093.81;;;9.80;100.00
5350;BME280;2697;42.144;24.794;2022-10-16T04:09:32;155085.91;;;9.77;100.00
5350;BME280;2697;42.144;24.794;2022-10-16T04:11:58;155051.69;;;9.64;100.00
5350;BME280;2697;42.144;24.794;2022-10-16T04:14:23;155056.94;;;9.66;100.00
5350;BME280;2697;42.144;24.794;2022-10-16T04:16:49;155071.44;;;9.71;100.00
5350;BME280;2697;42.144;24.794;2022-10-16T04:19:14;155117.50;;;9.89;100.00
5350;BME280;2697;42.144;24.794;2022-10-16T04:21:39;155131.94;;;9.95;100.00
5350;BME280;2697;42.144;24.794;2022-10-16T04:24:05;155088.56;;;9.78;100.00
5350;BME280;2697;42.144;24.794;2022-10-16T04:26:30;155043.81;;;9.61;100.00
5350;BME280;2697;42.144;24.794;2022-10-16T04:28:55;155035.88;;;9.58;100.00
5350;BME280;2697;42.144;24.794;2022-10-16T04:31:21;154988.50;;;9.39;100.00
5350;BME280;2697;42.144;24.794;2022-10-16T04:33:47;154967.50;;;9.31;100.00
5350;BME280;2697;42.144;24.794;2022-10-16T04:36:12;155005.63;;;9.46;100.00
5350;BME280;2697;42.144;24.794;2022-10-16T04:38:38;154972.75;;;9.33;100.00
5350;BME280;2697;42.144;24.794;2022-10-16T04:41:05;154946.47;;;9.23;100.00
5350;BME280;2697;42.144;24.794;2022-10-16T04:43:30;154950.41;;;9.25;100.00
5350;BME280;2697;42.144;24.794;2022-10-16T04:45:56;154980.63;;;9.36;100.00
5350;BME280;2697;42.144;24.794;2022-10-16T04:48:21;155009.56;;;9.48;100.00
5350;BME280;2697;42.144;24.794;2022-10-16T04:50:47;155053.00;;;9.64;100.00
5350;BME280;2697;42.144;24.794;2022-10-16T04:53:12;155121.44;;;9.91;100.00
5350;BME280;2697;42.144;24.794;2022-10-16T04:55:37;155120.13;;;9.90;100.00
5350;BME280;2697;42.144;24.794;2022-10-16T04:58:03;155106.94;;;9.85;100.00
5350;BME280;2697;42.144;24.794;2022-10-16T05:00:29;155099.06;;;9.82;100.00
5350;BME280;2697;42.144;24.794;2022-10-16T05:02:54;155071.44;;;9.71;100.00
5350;BME280;2697;42.144;24.794;2022-10-16T05:05:20;155041.19;;;9.60;100.00
5350;BME280;2697;42.144;24.794;2022-10-16T05:07:46;155056.94;;;9.66;100.00
5350;BME280;2697;42.144;24.794;2022-10-16T05:10:12;155053.00;;;9.64;100.00
5350;BME280;2697;42.144;24.794;2022-10-16T05:12:37;155024.06;;;9.53;100.00
5350;BME280;2697;42.144;24.794;2022-10-16T05:15:03;154954.34;;;9.26;100.00
5350;BME280;2697;42.144;24.794;2022-10-16T05:17:30;154975.38;;;9.34;100.00
5350;BME280;2697;42.144;24.794;2022-10-16T05:19:55;154934.59;;;9.19;100.00
5350;BME280;2697;42.144;24.794;2022-10-16T05:22:21;154904.34;;;9.07;100.00
5350;BME280;2697;42.144;24.794;2022-10-16T05:24:46;154903.03;;;9.06;100.00
5350;BME280;2697;42.144;24.794;2022-10-16T05:27:12;154901.72;;;9.06;100.00
5350;BME280;2697;42.144;24.794;2022-10-16T05:29:47;154917.53;;;9.12;100.00
5350;BME280;2697;42.144;24.794;2022-10-16T05:32:14;154951.72;;;9.25;100.00
5350;BME280;2697;42.144;24.794;2022-10-16T05:34:40;155042.50;;;9.60;100.00
5350;BME280;2697;42.144;24.794;2022-10-16T05:37:05;155091.19;;;9.79;100.00
5350;BME280;2697;42.144;24.794;2022-10-16T05:39:31;155114.88;;;9.88;100.00
5350;BME280;2697;42.144;24.794;2022-10-16T05:41:56;155155.63;;;10.04;100.00
5350;BME280;2697;42.144;24.794;2022-10-16T05:44:22;155167.50;;;10.09;100.00
5350;BME280;2697;42.144;24.794;2022-10-16T05:46:47;155164.88;;;10.08;100.00
5350;BME280;2697;42.144;24.794;2022-10-16T05:49:13;155188.56;;;10.17;100.00
5350;BME280;2697;42.144;24.794;2022-10-16T05:51:38;155218.88;;;10.28;100.00
5350;BME280;2697;42.144;24.794;2022-10-16T05:54:04;155245.22;;;10.39;100.00
5350;BME280;2697;42.144;24.794;2022-10-16T05:56:29;155247.84;;;10.40;100.00
5350;BME280;2697;42.144;24.794;2022-10-16T05:58:55;155220.19;;;10.29;100.00
5350;BME280;2697;42.144;24.794;2022-10-16T06:01:20;155225.44;;;10.31;100.00
5350;BME280;2697;42.144;24.794;2022-10-16T06:03:49;155275.47;;;10.50;100.00
5350;BME280;2697;42.144;24.794;2022-10-16T06:06:17;155300.50;;;10.60;100.00
5350;BME280;2697;42.144;24.794;2022-10-16T06:08:44;155328.19;;;10.71;100.00
5350;BME280;2697;42.144;24.794;2022-10-16T06:11:16;155378.22;;;10.90;100.00
5350;BME280;2697;42.144;24.794;2022-10-16T06:13:42;155376.91;;;10.90;100.00
5350;BME280;2697;42.144;24.794;2022-10-16T06:16:09;155433.53;;;11.11;100.00
5350;BME280;2697;42.144;24.794;2022-10-16T06:18:35;155430.91;;;11.10;100.00
5350;BME280;2697;42.144;24.794;2022-10-16T06:21:07;155408.50;;;11.02;100.00
5350;BME280;2697;42.144;24.794;2022-10-16T06:23:33;155444.06;;;11.16;100.00
5350;BME280;2697;42.144;24.794;2022-10-16T06:26:07;155432.22;;;11.11;100.00
5350;BME280;2697;42.144;24.794;2022-10-16T06:28:34;155473.09;;;11.27;100.00
5350;BME280;2697;42.144;24.794;2022-10-16T06:31:00;155477.03;;;11.28;99.22
5350;BME280;2697;42.144;24.794;2022-10-16T06:33:26;155512.56;;;11.42;98.20
5350;BME280;2697;42.144;24.794;2022-10-16T06:35:51;155519.16;;;11.45;97.85
5350;BME280;2697;42.144;24.794;2022-10-16T06:38:17;155457.25;;;11.21;97.56
5350;BME280;2697;42.144;24.794;2022-10-16T06:40:42;155441.44;;;11.14;98.66
5350;BME280;2697;42.144;24.794;2022-10-16T06:43:07;155441.44;;;11.14;97.95
5350;BME280;2697;42.144;24.794;2022-10-16T06:45:33;155483.59;;;11.31;97.64
5350;BME280;2697;42.144;24.794;2022-10-16T06:47:58;155521.81;;;11.46;97.36
5350;BME280;2697;42.144;24.794;2022-10-16T06:50:24;155502.06;;;11.38;96.51
5350;BME280;2697;42.144;24.794;2022-10-16T06:52:49;155519.16;;;11.45;96.53
5350;BME280;2697;42.144;24.794;2022-10-16T06:55:14;155525.78;;;11.47;96.77
5350;BME280;2697;42.144;24.794;2022-10-16T06:57:42;155541.56;;;11.53;96.48
5350;BME280;2697;42.144;24.794;2022-10-16T07:00:07;155561.34;;;11.61;96.59
5350;BME280;2697;42.144;24.794;2022-10-16T07:02:33;155614.09;;;11.81;95.92
5350;BME280;2697;42.144;24.794;2022-10-16T07:04:58;155628.59;;;11.87;94.75
5350;BME280;2697;42.144;24.794;2022-10-16T07:07:24;155654.97;;;11.97;94.93
5350;BME280;2697;42.144;24.794;2022-10-16T07:09:51;155694.53;;;12.12;94.82
5350;BME280;2697;42.144;24.794;2022-10-16T07:12:17;155709.00;;;12.18;94.03
5350;BME280;2697;42.144;24.794;2022-10-16T07:14:42;155727.47;;;12.25;93.92
5350;BME280;2697;42.144;24.794;2022-10-16T07:17:08;155735.38;;;12.28;93.38
5350;BME280;2697;42.144;24.794;2022-10-16T07:19:33;155724.84;;;12.24;93.51
5350;BME280;2697;42.144;24.794;2022-10-16T07:21:59;155778.88;;;12.45;93.99
5350;BME280;2697;42.144;24.794;2022-10-16T07:24:24;155821.09;;;12.61;93.37
5350;BME280;2697;42.144;24.794;2022-10-16T07:26:50;155826.38;;;12.63;91.89
5350;BME280;2697;42.144;24.794;2022-10-16T07:29:20;155827.69;;;12.64;91.95
5350;BME280;2697;42.144;24.794;2022-10-16T07:31:47;155843.53;;;12.70;92.22
5350;BME280;2697;42.144;24.794;2022-10-16T07:34:14;155847.47;;;12.71;91.67
5350;BME280;2697;42.144;24.794;2022-10-16T07:36:40;155855.38;;;12.74;92.47
5350;BME280;2697;42.144;24.794;2022-10-16T07:39:06;155897.59;;;12.91;91.73
5350;BME280;2697;42.144;24.794;2022-10-16T07:41:32;155923.97;;;13.01;91.75
5350;BME280;2697;42.144;24.794;2022-10-16T07:43:58;155955.69;;;13.13;91.56
5350;BME280;2697;42.144;24.794;2022-10-16T07:46:26;155975.47;;;13.21;91.40
5350;BME280;2697;42.144;24.794;2022-10-16T07:48:51;155986.06;;;13.25;90.90
5350;BME280;2697;42.144;24.794;2022-10-16T07:51:19;156029.63;;;13.42;90.04
5350;BME280;2697;42.144;24.794;2022-10-16T07:53:45;156065.22;;;13.55;88.90
5350;BME280;2697;42.144;24.794;2022-10-16T07:56:12;156095.56;;;13.67;88.68
5350;BME280;2697;42.144;24.794;2022-10-16T07:58:38;156098.25;;;13.68;88.42
5350;BME280;2697;42.144;24.794;2022-10-16T08:01:05;156066.56;;;13.56;88.59
5350;BME280;2697;42.144;24.794;2022-10-16T08:03:31;156090.31;;;13.65;87.85
5350;BME280;2697;42.144;24.794;2022-10-16T08:05:57;156123.34;;;13.78;88.09
5350;BME280;2697;42.144;24.794;2022-10-16T08:08:23;156112.75;;;13.74;87.81
5350;BME280;2697;42.144;24.794;2022-10-16T08:10:48;156135.19;;;13.82;87.38
5350;BME280;2697;42.144;24.794;2022-10-16T08:13:14;156151.06;;;13.88;86.71
5350;BME280;2697;42.144;24.794;2022-10-16T08:15:41;156180.09;;;14.00;86.49
5350;BME280;2697;42.144;24.794;2022-10-16T08:18:07;156191.94;;;14.04;85.97
5350;BME280;2697;42.144;24.794;2022-10-16T08:20:33;156219.72;;;14.15;85.44
5350;BME280;2697;42.144;24.794;2022-10-16T08:23:00;156230.25;;;14.19;85.04
5350;BME280;2697;42.144;24.794;2022-10-16T08:25:26;156292.34;;;14.43;84.88
5350;BME280;2697;42.144;24.794;2022-10-16T08:27:51;156309.53;;;14.49;84.55
5350;BME280;2697;42.144;24.794;2022-10-16T08:30:18;156349.19;;;14.65;83.27
5350;BME280;2697;42.144;24.794;2022-10-16T08:32:44;156365.03;;;14.71;82.98
5350;BME280;2697;42.144;24.794;2022-10-16T08:35:10;156387.47;;;14.79;81.85
5350;BME280;2697;42.144;24.794;2022-10-16T08:37:37;156429.75;;;14.96;80.47
5350;BME280;2697;42.144;24.794;2022-10-16T08:40:04;156431.06;;;14.96;79.71
5350;BME280;2697;42.144;24.794;2022-10-16T08:48:49;156495.81;;;15.21;77.25
5350;BME280;2697;42.144;24.794;2022-10-16T08:51:27;156489.25;;;15.19;76.60
5350;BME280;2697;42.144;24.794;2022-10-16T08:56:22;156573.78;;;15.51;75.88
5350;BME280;2697;42.144;24.794;2022-10-16T08:58:49;156597.63;;;15.60;74.58
5350;BME280;2697;42.144;24.794;2022-10-16T09:01:17;156626.72;;;15.72;74.79
5350;BME280;2697;42.144;24.794;2022-10-16T09:04:14;156608.25;;;15.64;72.52
5350;BME280;2697;42.144;24.794;2022-10-16T09:06:50;156647.88;;;15.80;72.75
5350;BME280;2697;42.144;24.794;2022-10-16T09:16:44;156753.69;;;16.20;69.46
5350;BME280;2697;42.144;24.794;2022-10-16T09:19:41;156747.03;;;16.18;66.52
5350;BME280;2697;42.144;24.794;2022-10-16T09:22:14;156758.97;;;16.22;65.10
5350;BME280;2697;42.144;24.794;2022-10-16T09:24:41;156780.13;;;16.31;66.53
5350;BME280;2697;42.144;24.794;2022-10-16T09:27:13;156843.59;;;16.55;66.54
5350;BME280;2697;42.144;24.794;2022-10-16T09:29:40;156891.28;;;16.73;64.86
5350;BME280;2697;42.144;24.794;2022-10-16T09:32:20;156909.81;;;16.80;63.23
5350;BME280;2697;42.144;24.794;2022-10-16T09:34:54;156925.69;;;16.87;63.52
5350;BME280;2697;42.144;24.794;2022-10-16T09:37:22;156938.91;;;16.92;61.79
5350;BME280;2697;42.144;24.794;2022-10-16T09:39:51;156978.63;;;17.07;60.60
5350;BME280;2697;42.144;24.794;2022-10-16T09:42:23;156978.63;;;17.07;59.56
5350;BME280;2697;42.144;24.794;2022-10-16T09:44:51;157002.44;;;17.16;59.68
5350;BME280;2697;42.144;24.794;2022-10-16T09:47:21;157023.63;;;17.24;60.60
5350;BME280;2697;42.144;24.794;2022-10-16T09:49:55;157052.72;;;17.35;59.26
5350;BME280;2697;42.144;24.794;2022-10-16T09:52:22;157092.44;;;17.51;57.45
5350;BME280;2697;42.144;24.794;2022-10-16T09:55:21;157117.59;;;17.60;57.44
5350;BME280;2697;42.144;24.794;2022-10-16T09:57:53;157148.09;;;17.72;54.67
5350;BME280;2697;42.144;24.794;2022-10-16T10:00:21;157113.63;;;17.59;54.08
5350;BME280;2697;42.144;24.794;2022-10-16T10:02:49;157148.09;;;17.72;52.97
5350;BME280;2697;42.144;24.794;2022-10-16T10:05:28;157134.78;;;17.67;53.25
5350;BME280;2697;42.144;24.794;2022-10-16T10:07:56;157158.66;;;17.76;53.14
5350;BME280;2697;42.144;24.794;2022-10-16T10:10:25;157179.84;;;17.84;51.71
5350;BME280;2697;42.144;24.794;2022-10-16T10:12:52;157197.06;;;17.91;51.36
5350;BME280;2697;42.144;24.794;2022-10-16T10:15:18;157219.59;;;18.00;52.03
5350;BME280;2697;42.144;24.794;2022-10-16T10:17:56;157232.81;;;18.05;51.14
5350;BME280;2697;42.144;24.794;2022-10-16T10:22:47;157218.28;;;17.99;49.26
5350;BME280;2697;42.144;24.794;2022-10-16T10:50:14;157279.16;;;18.22;48.48
5350;BME280;2697;42.144;24.794;2022-10-16T11:01:13;157292.44;;;18.28;48.03
5350;BME280;2697;42.144;24.794;2022-10-16T11:03:59;157269.91;;;18.19;48.15
5350;BME280;2697;42.144;24.794;2022-10-16T11:09:20;157280.50;;;18.23;47.17
5350;BME280;2697;42.144;24.794;2022-10-16T11:17:33;157338.78;;;18.45;46.74
5350;BME280;2697;42.144;24.794;2022-10-16T11:20:13;157329.50;;;18.42;47.07
5350;BME280;2697;42.144;24.794;2022-10-16T11:22:48;157385.16;;;18.63;46.73
5350;BME280;2697;42.144;24.794;2022-10-16T11:25:30;157413.03;;;18.74;46.63
5350;BME280;2697;42.144;24.794;2022-10-16T11:28:14;157423.59;;;18.78;46.10
5350;BME280;2697;42.144;24.794;2022-10-16T11:30:59;157444.81;;;18.86;45.85
5350;BME280;2697;42.144;24.794;2022-10-16T11:39:26;157476.59;;;18.98;44.54
5350;BME280;2697;42.144;24.794;2022-10-16T11:42:07;157463.38;;;18.93;45.59
5350;BME280;2697;42.144;24.794;2022-10-16T11:45:03;157439.53;;;18.84;45.17
5350;BME280;2697;42.144;24.794;2022-10-16T11:47:45;157459.41;;;18.92;45.41
5350;BME280;2697;42.144;24.794;2022-10-16T11:50:31;157455.44;;;18.90;45.34
5350;BME280;2697;42.144;24.794;2022-10-16T11:53:04;157475.28;;;18.98;44.33
5350;BME280;2697;42.144;24.794;2022-10-16T11:55:41;157508.44;;;19.11;44.94
5350;BME280;2697;42.144;24.794;2022-10-16T11:58:28;157561.44;;;19.31;44.69
5350;BME280;2697;42.144;24.794;2022-10-16T12:01:22;157576.06;;;19.36;44.63
5350;BME280;2697;42.144;24.794;2022-10-16T12:04:35;157560.13;;;19.30;44.36
5350;BME280;2697;42.144;24.794;2022-10-16T12:07:14;157572.03;;;19.35;43.77
5350;BME280;2697;42.144;24.794;2022-10-16T12:09:42;157562.78;;;19.31;43.97
5350;BME280;2697;42.144;24.794;2022-10-16T12:12:42;157557.47;;;19.29;44.29
5350;BME280;2697;42.144;24.794;2022-10-16T12:15:29;157589.28;;;19.42;43.80
5350;BME280;2697;42.144;24.794;2022-10-16T12:17:55;157556.16;;;19.29;43.99
5350;BME280;2697;42.144;24.794;2022-10-16T12:20:32;157542.88;;;19.24;44.10
5350;BME280;2697;42.144;24.794;2022-10-16T12:23:03;157561.44;;;19.31;44.63
5350;BME280;2697;42.144;24.794;2022-10-16T12:25:39;157581.34;;;19.39;44.66
5350;BME280;2697;42.144;24.794;2022-10-16T12:30:41;157618.44;;;19.53;43.70
5350;BME280;2697;42.144;24.794;2022-10-16T12:35:46;157599.91;;;19.46;43.72
5350;BME280;2697;42.144;24.794;2022-10-16T12:38:19;157599.91;;;19.46;44.27
5350;BME280;2697;42.144;24.794;2022-10-16T12:40:47;157568.06;;;19.33;43.69
5350;BME280;2697;42.144;24.794;2022-10-16T12:45:45;157590.59;;;19.42;43.50
5350;BME280;2697;42.144;24.794;2022-10-16T12:48:20;157638.38;;;19.60;43.02
5350;BME280;2697;42.144;24.794;2022-10-16T12:50:46;157630.44;;;19.57;43.25
5350;BME280;2697;42.144;24.794;2022-10-16T12:53:21;157646.31;;;19.63;43.08
5350;BME280;2697;42.144;24.794;2022-10-16T12:59:21;157606.53;;;19.48;43.15
5350;BME280;2697;42.144;24.794;2022-10-16T13:04:47;157641.00;;;19.61;42.69
5350;BME280;2697;42.144;24.794;2022-10-16T13:16:14;157680.81;;;19.77;42.58
5350;BME280;2697;42.144;24.794;2022-10-16T13:27:07;157631.75;;;19.58;43.03
5350;BME280;2697;42.144;24.794;2022-10-16T13:29:36;157610.50;;;19.50;43.18
5350;BME280;2697;42.144;24.794;2022-10-16T13:32:07;157609.16;;;19.49;42.79
5350;BME280;2697;42.144;24.794;2022-10-16T13:34:43;157637.06;;;19.60;42.81
5350;BME280;2697;42.144;24.794;2022-10-16T13:37:20;157654.31;;;19.67;42.57
5350;BME280;2697;42.144;24.794;2022-10-16T13:39:46;157664.88;;;19.71;42.78
5350;BME280;2697;42.144;24.794;2022-10-16T13:42:26;157717.91;;;19.91;42.33
5350;BME280;2697;42.144;24.794;2022-10-16T13:44:55;157678.16;;;19.76;42.42
5350;BME280;2697;42.144;24.794;2022-10-16T13:47:27;157687.44;;;19.79;42.83
5350;BME280;2697;42.144;24.794;2022-10-16T13:50:11;157660.91;;;19.69;42.65
5350;BME280;2697;42.144;24.794;2022-10-16T13:52:37;157641.00;;;19.61;42.16
5350;BME280;2697;42.144;24.794;2022-10-16T13:55:36;157721.94;;;19.92;41.87
5350;BME280;2697;42.144;24.794;2022-10-16T13:58:07;157686.09;;;19.79;41.95
5350;BME280;2697;42.144;24.794;2022-10-16T14:00:33;157682.13;;;19.77;42.21
5350;BME280;2697;42.144;24.794;2022-10-16T14:03:03;157642.34;;;19.62;42.71
5350;BME280;2697;42.144;24.794;2022-10-16T14:05:29;157614.47;;;19.51;42.54
5350;BME280;2697;42.144;24.794;2022-10-16T14:07:56;157603.88;;;19.47;43.52
5350;BME280;2697;42.144;24.794;2022-10-16T14:10:26;157625.09;;;19.55;43.42
5350;BME280;2697;42.144;24.794;2022-10-16T14:13:16;157626.47;;;19.56;43.14
5350;BME280;2697;42.144;24.794;2022-10-16T14:15:49;157614.47;;;19.51;43.29
5350;BME280;2697;42.144;24.794;2022-10-16T14:18:21;157649.00;;;19.64;42.58
5350;BME280;2697;42.144;24.794;2022-10-16T14:20:49;157670.19;;;19.73;42.35
5350;BME280;2697;42.144;24.794;2022-10-16T14:25:46;157550.88;;;19.27;42.87
5350;BME280;2697;42.144;24.794;2022-10-16T14:28:22;157541.56;;;19.23;43.37
5350;BME280;2697;42.144;24.794;2022-10-16T14:30:57;157550.88;;;19.27;43.03
5350;BME280;2697;42.144;24.794;2022-10-16T14:36:10;157525.69;;;19.17;43.64
5350;BME280;2697;42.144;24.794;2022-10-16T14:38:38;157556.16;;;19.29;43.61
5350;BME280;2697;42.144;24.794;2022-10-16T14:41:05;157553.50;;;19.28;43.46
5350;BME280;2697;42.144;24.794;2022-10-16T14:43:36;157569.38;;;19.34;43.48
5350;BME280;2697;42.144;24.794;2022-10-16T14:46:13;157540.22;;;19.23;43.39
5350;BME280;2697;42.144;24.794;2022-10-16T14:48:49;157520.34;;;19.15;43.15
5350;BME280;2697;42.144;24.794;2022-10-16T14:51:19;157492.53;;;19.04;43.99
5350;BME280;2697;42.144;24.794;2022-10-16T14:53:45;157487.22;;;19.02;43.77
5350;BME280;2697;42.144;24.794;2022-10-16T14:56:17;157516.38;;;19.14;43.50
5350;BME280;2697;42.144;24.794;2022-10-16T14:58:43;157537.59;;;19.22;43.63
5350;BME280;2697;42.144;24.794;2022-10-16T15:01:10;157495.16;;;19.05;44.05
5350;BME280;2697;42.144;24.794;2022-10-16T15:03:37;157492.53;;;19.04;44.17
5350;BME280;2697;42.144;24.794;2022-10-16T15:06:03;157479.31;;;18.99;44.30
5350;BME280;2697;42.144;24.794;2022-10-16T15:08:28;157484.59;;;19.01;44.21